Main page
METAR-TAF:

METAR-TAF

Airports :

Rome-Fiumicino, Italy

Leonardo da Vinci–Fiumicino Airport

latitude: 41-48N, longitude: 012-14E, elevation: 2 m

Current weather observation

The report was made 34 minutes ago, at 08:20 UTC
Wind 3 kt from variable directions
Temperature 18°C
Humidity 56%
Pressure 1014 hPa
Visibility 10 km or more
no clouds below 1500 m and no cumulonimbus

METAR: LIRF 300820Z VRB03KT CAVOK 18/09 Q1014 NOSIG

Time: 10:54 (08:54 UTC)

Forecast

The report was made 3 hours and 54 minutes ago, at 05:00 UTC
Forecast valid from 30 at 06 UTC to 01 at 12 UTC
Wind 5 kt from variable directions
Visibility 10 km or more
Few clouds at a height of 3000 ft
Becoming
from 30 at 09 UTC to 30 at 11 UTC
Wind 12 kt from the West
Becoming
from 30 at 16 UTC to 30 at 18 UTC
Wind 5 kt from variable directions
Becoming
from 01 at 08 UTC to 01 at 10 UTC
Wind 14 kt from the South

TAF: LIRF 300500Z 3006/0112 VRB05KT 9999 FEW030 BECMG 3009/3011 26012KT BECMG 3016/3018 VRB05KT BECMG 0108/0110 18014KT

Weather observations and forecasts of more than 4000 airports (METAR and TAF reports).

The available stations are represented by yellow and red dots on the map.

Hover mouse over dot to see the name of the station.

Then click to see weather observations and forecasts.

To change the map : click on the green buttons with a black cross to zoom in, on the green button with a dash to zoom out, or on the green arrows for adjacent maps.


METAR-TAF: